createdAt,value
2022-10-23T00:02:22.766Z,14.10
2022-10-23T00:04:54.140Z,13.90
2022-10-23T00:07:24.751Z,13.90
2022-10-23T00:09:55.848Z,13.90
2022-10-23T00:12:28.173Z,13.80
2022-10-23T00:14:58.795Z,13.60
2022-10-23T00:17:30.939Z,13.60
2022-10-23T00:20:01.459Z,13.50
2022-10-23T00:22:31.992Z,13.80
2022-10-23T00:25:02.624Z,13.90
2022-10-23T00:27:34.205Z,13.70
2022-10-23T00:30:06.106Z,14.00
2022-10-23T00:32:36.697Z,13.90
2022-10-23T00:35:08.767Z,13.90
2022-10-23T00:37:39.430Z,14.20
2022-10-23T00:40:13.510Z,14.30
2022-10-23T00:42:44.365Z,14.60
2022-10-23T00:45:24.402Z,14.60
2022-10-23T00:47:56.755Z,14.50
2022-10-23T00:50:29.604Z,14.50
2022-10-23T00:53:03.391Z,14.30
2022-10-23T00:55:35.213Z,14.10
2022-10-23T00:58:06.091Z,14.00
2022-10-23T01:00:47.400Z,14.00
2022-10-23T01:03:20.431Z,13.80
2022-10-23T01:05:54.692Z,13.80
2022-10-23T01:08:30.645Z,13.70
2022-10-23T01:11:05.269Z,13.80
2022-10-23T01:13:41.503Z,13.80
2022-10-23T01:16:15.816Z,14.00
2022-10-23T01:18:49.609Z,13.80
2022-10-23T01:21:24.130Z,14.10
2022-10-23T01:24:16.301Z,14.30
2022-10-23T01:27:12.579Z,14.20
2022-10-23T01:29:46.304Z,14.20
2022-10-23T01:32:19.861Z,14.70
2022-10-23T01:34:52.992Z,14.60
2022-10-23T01:37:26.943Z,14.40
2022-10-23T01:39:59.804Z,14.30
2022-10-23T01:42:34.156Z,14.10
2022-10-23T01:45:08.573Z,13.80
2022-10-23T01:47:40.231Z,13.70
2022-10-23T01:50:14.552Z,13.60
2022-10-23T01:52:45.367Z,13.50
2022-10-23T01:55:16.602Z,13.60
2022-10-23T01:57:48.859Z,13.60
2022-10-23T02:00:21.876Z,13.60
2022-10-23T02:02:55.250Z,13.50
2022-10-23T02:05:28.789Z,13.40
2022-10-23T02:08:01.471Z,13.50
2022-10-23T02:10:35.680Z,13.40
2022-10-23T02:13:09.443Z,13.50
2022-10-23T02:15:42.580Z,13.30
2022-10-23T02:18:16.955Z,13.40
2022-10-23T02:20:50.444Z,13.40
2022-10-23T02:23:24.266Z,13.50
2022-10-23T02:25:57.988Z,13.30
2022-10-23T02:28:31.743Z,13.40
2022-10-23T02:31:04.295Z,13.50
2022-10-23T02:33:37.321Z,13.50
2022-10-23T02:36:09.081Z,13.40
2022-10-23T02:38:42.124Z,13.60
2022-10-23T02:41:20.754Z,13.50
2022-10-23T02:44:01.299Z,13.60
2022-10-23T02:46:35.668Z,13.50
2022-10-23T02:49:10.661Z,13.60
2022-10-23T02:51:46.569Z,13.70
2022-10-23T02:54:20.213Z,13.70
2022-10-23T02:56:53.867Z,13.80
2022-10-23T02:59:27.753Z,13.90
2022-10-23T03:02:01.567Z,13.40
2022-10-23T03:04:34.915Z,12.90
2022-10-23T03:07:05.963Z,12.80
2022-10-23T03:09:38.205Z,12.60
2022-10-23T03:12:09.206Z,12.50
2022-10-23T03:14:39.802Z,12.50
2022-10-23T03:17:11.151Z,12.90
2022-10-23T03:19:41.714Z,13.10
2022-10-23T03:22:30.894Z,13.40
2022-10-23T03:25:01.973Z,13.40
2022-10-23T03:27:32.525Z,13.30
2022-10-23T03:30:03.576Z,13.60
2022-10-23T03:32:34.247Z,13.20
2022-10-23T03:35:05.294Z,13.50
2022-10-23T03:37:35.815Z,13.80
2022-10-23T03:40:08.391Z,14.10
2022-10-23T03:42:38.929Z,14.10
2022-10-23T03:45:11.157Z,14.10
2022-10-23T03:47:42.030Z,13.80
2022-10-23T03:50:14.457Z,13.60
2022-10-23T03:52:45.252Z,13.40
2022-10-23T03:55:16.080Z,13.30
2022-10-23T03:57:46.764Z,13.60
2022-10-23T04:00:18.251Z,13.60
2022-10-23T04:02:49.188Z,13.50
2022-10-23T04:05:20.082Z,13.40
2022-10-23T04:07:50.629Z,13.50
2022-10-23T04:10:21.953Z,13.70
2022-10-23T04:12:52.484Z,13.20
2022-10-23T04:15:23.111Z,13.30
2022-10-23T04:17:53.704Z,13.10
2022-10-23T04:20:24.250Z,13.10
2022-10-23T04:22:54.865Z,13.20
2022-10-23T04:25:25.494Z,13.50
2022-10-23T04:27:56.020Z,13.10
2022-10-23T04:30:26.569Z,13.40
2022-10-23T04:32:57.101Z,13.50
2022-10-23T04:35:27.706Z,13.20
2022-10-23T04:37:58.250Z,13.40
2022-10-23T04:40:28.824Z,13.30
2022-10-23T04:42:59.365Z,13.80
2022-10-23T04:45:29.989Z,14.10
2022-10-23T04:48:00.558Z,14.20
2022-10-23T04:50:31.102Z,13.70
2022-10-23T04:53:01.667Z,13.60
2022-10-23T04:55:32.205Z,13.50
2022-10-23T04:58:02.746Z,13.20
2022-10-23T05:00:33.437Z,13.10
2022-10-23T05:03:03.956Z,13.00
2022-10-23T05:05:34.525Z,13.20
2022-10-23T05:08:05.131Z,13.60
2022-10-23T05:10:35.765Z,13.50
2022-10-23T05:13:06.828Z,13.40
2022-10-23T05:15:37.402Z,13.30
2022-10-23T05:18:11.908Z,13.30
2022-10-23T05:21:02.589Z,13.60
2022-10-23T05:23:36.499Z,13.90
2022-10-23T05:26:07.948Z,13.50
2022-10-23T05:28:38.612Z,13.30
2022-10-23T05:31:10.064Z,13.40
2022-10-23T05:33:41.209Z,13.50
2022-10-23T05:36:13.038Z,13.50
2022-10-23T05:38:44.123Z,13.50
2022-10-23T05:41:14.874Z,13.70
2022-10-23T05:43:46.399Z,13.70
2022-10-23T05:46:17.061Z,13.60
2022-10-23T05:48:49.073Z,13.70
2022-10-23T05:51:21.978Z,13.60
2022-10-23T05:53:53.037Z,13.50
2022-10-23T05:56:23.569Z,13.60
2022-10-23T05:58:54.143Z,13.50
2022-10-23T06:01:24.761Z,13.50
2022-10-23T06:03:55.481Z,13.70
2022-10-23T06:06:26.044Z,13.90
2022-10-23T06:08:57.066Z,13.90
2022-10-23T06:11:27.713Z,13.70
2022-10-23T06:13:58.398Z,13.80
2022-10-23T06:16:29.068Z,13.90
2022-10-23T06:19:00.415Z,14.00
2022-10-23T06:21:31.029Z,14.00
2022-10-23T06:24:01.732Z,14.00
2022-10-23T06:26:32.367Z,14.10
2022-10-23T06:29:03.000Z,14.10
2022-10-23T06:31:33.732Z,13.90
2022-10-23T06:34:04.626Z,14.00
2022-10-23T06:36:35.826Z,14.10
2022-10-23T06:39:07.320Z,14.00
2022-10-23T06:41:39.203Z,14.10
2022-10-23T06:44:10.462Z,14.20
2022-10-23T06:46:41.158Z,14.20
2022-10-23T06:49:11.668Z,14.20
2022-10-23T06:51:42.185Z,14.30
2022-10-23T06:54:14.227Z,14.40
2022-10-23T06:56:44.751Z,14.70
2022-10-23T06:59:15.275Z,14.70
2022-10-23T07:01:46.134Z,14.90
2022-10-23T07:04:16.976Z,14.90
2022-10-23T07:06:47.545Z,15.10
2022-10-23T07:09:18.074Z,14.90
2022-10-23T07:11:48.634Z,15.20
2022-10-23T07:14:19.453Z,15.10
2022-10-23T07:16:49.982Z,15.10
2022-10-23T07:19:20.491Z,14.90
2022-10-23T07:21:52.146Z,14.90
2022-10-23T07:24:22.794Z,15.10
2022-10-23T07:26:53.376Z,15.10
2022-10-23T07:29:23.893Z,15.20
2022-10-23T07:31:54.465Z,15.10
2022-10-23T07:34:25.074Z,14.80
2022-10-23T07:36:57.103Z,14.60
2022-10-23T07:39:27.847Z,14.60
2022-10-23T07:41:58.374Z,14.60
2022-10-23T07:44:29.054Z,14.70
2022-10-23T07:46:59.565Z,14.80
2022-10-23T07:49:30.222Z,14.70
2022-10-23T07:52:00.878Z,14.80
2022-10-23T07:54:31.633Z,14.90
2022-10-23T07:57:02.542Z,15.10
2022-10-23T07:59:37.140Z,15.20
2022-10-23T08:02:06.114Z,15.30
2022-10-23T08:04:36.791Z,15.30
2022-10-23T08:07:07.442Z,15.30
2022-10-23T08:09:38.384Z,15.40
2022-10-23T08:12:10.413Z,15.50
2022-10-23T08:14:41.195Z,15.60
2022-10-23T08:17:11.765Z,15.60
2022-10-23T08:19:43.981Z,15.60
2022-10-23T08:22:14.827Z,15.50
2022-10-23T08:24:45.927Z,15.60
2022-10-23T08:27:16.495Z,15.70
2022-10-23T08:29:47.020Z,15.80
2022-10-23T08:32:17.573Z,15.90
2022-10-23T08:34:48.577Z,16.00
2022-10-23T08:37:19.201Z,16.10
2022-10-23T08:39:52.574Z,16.20
2022-10-23T08:42:25.114Z,16.20
2022-10-23T08:45:01.207Z,16.20
2022-10-23T08:47:36.493Z,16.20
2022-10-23T08:50:10.244Z,16.30
2022-10-23T08:52:44.061Z,16.40
2022-10-23T08:55:20.176Z,16.50
2022-10-23T08:57:55.095Z,16.60
2022-10-23T09:00:25.953Z,16.70
2022-10-23T09:02:57.484Z,16.70
2022-10-23T09:05:32.119Z,16.80
2022-10-23T09:08:11.750Z,16.80
2022-10-23T09:11:05.894Z,16.90
2022-10-23T09:14:28.558Z,17.00
2022-10-23T09:17:06.683Z,17.10
2022-10-23T09:19:37.288Z,17.20
2022-10-23T09:22:10.109Z,17.20
2022-10-23T09:24:42.181Z,17.30
2022-10-23T09:27:16.714Z,17.30
2022-10-23T09:29:52.288Z,17.30
2022-10-23T09:32:24.725Z,17.30
2022-10-23T09:34:56.628Z,17.40
2022-10-23T09:37:29.260Z,17.40
2022-10-23T09:40:19.287Z,17.60
2022-10-23T09:42:58.894Z,17.70
2022-10-23T09:45:33.477Z,17.80
2022-10-23T09:48:11.292Z,17.90
2022-10-23T09:50:53.820Z,18.00
2022-10-23T09:53:35.373Z,18.00
2022-10-23T09:56:10.460Z,17.90
2022-10-23T09:58:44.270Z,18.10
2022-10-23T10:01:27.659Z,18.20
2022-10-23T10:03:58.969Z,18.40
2022-10-23T10:06:31.712Z,18.50
2022-10-23T10:09:05.204Z,18.70
2022-10-23T10:11:42.901Z,18.90
2022-10-23T10:14:45.799Z,19.10
2022-10-23T10:17:22.126Z,19.30
2022-10-23T10:20:10.708Z,19.50
2022-10-23T10:22:45.202Z,19.50
2022-10-23T10:25:19.298Z,19.60
2022-10-23T10:27:56.492Z,19.60
2022-10-23T10:30:29.528Z,19.70
2022-10-23T10:33:03.016Z,19.80
2022-10-23T10:35:41.023Z,19.90
2022-10-23T10:38:39.143Z,20.00
2022-10-23T10:41:33.290Z,20.10
2022-10-23T10:44:20.256Z,20.10
2022-10-23T10:46:54.218Z,20.30
2022-10-23T10:49:28.264Z,20.30
2022-10-23T10:52:02.246Z,20.30
2022-10-23T10:54:40.184Z,20.20
2022-10-23T10:57:16.094Z,20.20
2022-10-23T10:59:49.634Z,20.20
2022-10-23T11:02:27.786Z,20.40
2022-10-23T11:05:04.396Z,20.40
2022-10-23T11:07:39.143Z,20.60
2022-10-23T11:10:19.251Z,20.80
2022-10-23T11:12:51.167Z,20.90
2022-10-23T11:15:24.962Z,20.90
2022-10-23T11:17:59.847Z,20.90
2022-10-23T11:20:43.699Z,20.90
2022-10-23T11:23:38.622Z,21.00
2022-10-23T11:26:21.094Z,20.90
2022-10-23T11:29:08.417Z,21.10
2022-10-23T11:31:42.217Z,21.20
2022-10-23T11:35:04.776Z,21.20
2022-10-23T11:37:35.951Z,21.30
2022-10-23T11:40:16.957Z,21.30
2022-10-23T11:42:52.051Z,21.40
2022-10-23T11:45:32.336Z,21.70
2022-10-23T11:48:05.326Z,21.80
2022-10-23T11:50:39.005Z,21.80
2022-10-23T11:53:13.912Z,21.80
2022-10-23T11:55:59.439Z,21.80
2022-10-23T11:58:32.935Z,21.70
2022-10-23T12:01:07.625Z,21.90
2022-10-23T12:03:51.241Z,22.20
2022-10-23T12:06:26.379Z,22.20
2022-10-23T12:09:01.326Z,22.60
2022-10-23T12:11:47.715Z,22.80
2022-10-23T12:14:33.694Z,23.00
2022-10-23T12:17:32.705Z,22.90
2022-10-23T12:20:23.662Z,22.80
2022-10-23T12:23:17.636Z,22.70
2022-10-23T12:25:54.962Z,22.60
2022-10-23T12:28:30.166Z,22.70
2022-10-23T12:31:04.370Z,23.00
2022-10-23T12:33:40.630Z,23.00
2022-10-23T12:36:27.470Z,23.10
2022-10-23T12:38:58.851Z,23.20
2022-10-23T12:41:32.252Z,23.10
2022-10-23T12:44:06.265Z,23.10
2022-10-23T12:46:40.222Z,23.10
2022-10-23T12:49:18.184Z,23.00
2022-10-23T12:51:56.900Z,22.90
2022-10-23T12:54:28.229Z,22.80
2022-10-23T12:56:59.044Z,22.70
2022-10-23T12:59:32.192Z,22.60
2022-10-23T13:02:02.827Z,22.60
2022-10-23T13:04:35.979Z,22.90
2022-10-23T13:07:06.911Z,22.80
2022-10-23T13:09:40.284Z,22.90
2022-10-23T13:12:14.653Z,23.00
2022-10-23T13:14:57.260Z,22.90
2022-10-23T13:17:38.230Z,22.80
2022-10-23T13:20:23.723Z,22.90
2022-10-23T13:23:00.561Z,22.80
2022-10-23T13:25:33.473Z,22.60
2022-10-23T13:28:25.723Z,22.60
2022-10-23T13:31:26.066Z,22.60
2022-10-23T13:34:09.849Z,22.60
2022-10-23T13:36:41.961Z,22.50
2022-10-23T13:39:17.239Z,22.50
2022-10-23T13:41:48.806Z,22.40
2022-10-23T13:44:22.254Z,22.30
2022-10-23T13:46:53.383Z,22.20
2022-10-23T13:49:23.891Z,22.20
2022-10-23T13:51:56.590Z,22.10
2022-10-23T13:54:29.158Z,22.10
2022-10-23T13:57:00.175Z,22.00
2022-10-23T13:59:30.687Z,22.00
2022-10-23T14:02:01.339Z,21.80
2022-10-23T14:04:32.173Z,21.70
2022-10-23T14:07:02.691Z,21.70
2022-10-23T14:09:33.198Z,21.60
2022-10-23T14:12:03.750Z,21.60
2022-10-23T14:14:34.640Z,21.70
2022-10-23T14:17:05.235Z,21.60
2022-10-23T14:22:08.162Z,21.40
2022-10-23T14:24:39.005Z,21.30
2022-10-23T14:27:09.633Z,21.30
2022-10-23T14:29:41.401Z,21.30
2022-10-23T14:32:12.259Z,21.20
2022-10-23T14:34:46.015Z,21.20
2022-10-23T14:37:17.501Z,21.10
2022-10-23T14:39:50.207Z,21.10
2022-10-23T14:42:20.516Z,21.10
2022-10-23T14:44:52.813Z,21.10
2022-10-23T14:47:24.100Z,21.10
2022-10-23T14:49:56.339Z,20.90
2022-10-23T14:52:27.512Z,20.90
2022-10-23T14:54:58.101Z,21.00
2022-10-23T14:57:28.674Z,20.90
2022-10-23T14:59:59.167Z,20.80
2022-10-23T15:02:29.754Z,20.70
2022-10-23T15:05:00.349Z,20.70
2022-10-23T15:07:31.033Z,20.80
2022-10-23T15:10:01.552Z,20.80
2022-10-23T15:12:32.077Z,20.80
2022-10-23T15:15:02.685Z,20.80
2022-10-23T15:17:34.159Z,20.70
2022-10-23T15:20:04.971Z,20.70
2022-10-23T15:22:35.657Z,20.60
2022-10-23T15:25:07.939Z,20.60
2022-10-23T15:27:38.512Z,20.60
2022-10-23T15:30:12.019Z,20.50
2022-10-23T15:32:43.458Z,20.50
2022-10-23T15:35:14.052Z,20.40
2022-10-23T15:37:44.856Z,20.30
2022-10-23T15:40:16.132Z,20.30
2022-10-23T15:42:47.706Z,20.20
2022-10-23T15:45:18.406Z,20.10
2022-10-23T15:47:50.551Z,20.20
2022-10-23T15:50:21.260Z,20.10
2022-10-23T15:52:53.583Z,20.00
2022-10-23T15:58:05.754Z,19.80
2022-10-23T16:00:38.439Z,19.80
2022-10-23T16:03:09.231Z,19.70
2022-10-23T16:05:40.019Z,19.60
2022-10-23T16:08:10.852Z,19.60
2022-10-23T16:10:42.814Z,19.60
2022-10-23T16:13:14.012Z,19.60
2022-10-23T16:15:44.997Z,19.60
2022-10-23T16:18:18.107Z,19.70
2022-10-23T16:20:51.059Z,19.70
2022-10-23T16:23:22.012Z,19.60
2022-10-23T16:25:52.709Z,19.50
2022-10-23T16:28:24.248Z,19.40
2022-10-23T16:30:56.352Z,19.30
2022-10-23T16:33:27.593Z,19.20
2022-10-23T16:36:01.437Z,19.20
2022-10-23T16:38:33.106Z,19.20
2022-10-23T16:41:07.055Z,19.20
2022-10-23T16:43:36.737Z,19.30
2022-10-23T16:46:09.924Z,19.20
2022-10-23T16:48:41.264Z,19.10
2022-10-23T16:51:15.763Z,19.10
2022-10-23T16:53:47.561Z,19.10
2022-10-23T16:56:21.140Z,19.00
2022-10-23T16:58:51.968Z,19.00
2022-10-23T17:01:24.384Z,19.00
2022-10-23T17:03:57.013Z,19.00
2022-10-23T17:06:30.185Z,18.90
2022-10-23T17:09:03.272Z,18.90
2022-10-23T17:11:35.643Z,18.80
2022-10-23T17:14:09.483Z,18.90
2022-10-23T17:16:43.153Z,19.00
2022-10-23T17:19:33.090Z,19.10
2022-10-23T17:21:49.316Z,19.10
2022-10-23T17:24:20.681Z,19.10
2022-10-23T17:26:51.630Z,19.20
2022-10-23T17:29:23.019Z,19.10
2022-10-23T17:31:54.903Z,19.10
2022-10-23T17:34:25.962Z,19.00
2022-10-23T17:36:57.567Z,18.80
2022-10-23T17:39:29.986Z,18.70
2022-10-23T17:42:01.194Z,18.70
2022-10-23T17:44:32.077Z,18.70
2022-10-23T17:47:03.162Z,18.60
2022-10-23T17:49:34.099Z,18.70
2022-10-23T17:52:05.074Z,18.70
2022-10-23T17:54:36.466Z,18.80
2022-10-23T17:57:07.509Z,19.20
2022-10-23T17:59:39.280Z,19.50
2022-10-23T18:02:13.073Z,19.40
2022-10-23T18:04:44.084Z,19.30
2022-10-23T18:07:14.748Z,19.30
2022-10-23T18:09:46.033Z,19.20
2022-10-23T18:12:16.708Z,19.20
2022-10-23T18:14:47.443Z,19.40
2022-10-23T18:17:18.084Z,19.40
2022-10-23T18:19:50.148Z,19.40
2022-10-23T18:22:20.853Z,19.30
2022-10-23T18:24:51.602Z,19.30
2022-10-23T18:27:22.273Z,19.60
2022-10-23T18:29:54.197Z,19.70
2022-10-23T18:32:24.908Z,19.70
2022-10-23T18:34:55.590Z,19.60
2022-10-23T18:37:28.868Z,19.40
2022-10-23T18:39:58.561Z,19.40
2022-10-23T18:42:29.144Z,19.30
2022-10-23T18:44:59.957Z,19.20
2022-10-23T18:47:31.021Z,19.10
2022-10-23T18:50:01.778Z,19.30
2022-10-23T18:52:32.498Z,19.30
2022-10-23T18:55:04.741Z,19.00
2022-10-23T18:57:36.108Z,19.00
2022-10-23T19:00:10.094Z,19.10
2022-10-23T19:02:41.628Z,19.30
2022-10-23T19:05:12.548Z,19.60
2022-10-23T19:07:47.131Z,19.60
2022-10-23T19:10:19.993Z,19.50
2022-10-23T19:12:51.612Z,20.60
2022-10-23T19:15:22.737Z,20.60
2022-10-23T19:17:54.634Z,20.70
2022-10-23T19:20:26.127Z,20.70
2022-10-23T19:22:59.048Z,20.80
2022-10-23T19:25:34.496Z,20.80
2022-10-23T19:28:07.695Z,20.80
2022-10-23T19:30:38.945Z,20.70
2022-10-23T19:33:10.064Z,20.50
2022-10-23T19:35:41.381Z,20.60
2022-10-23T19:38:12.485Z,21.00
2022-10-23T19:40:43.823Z,21.00
2022-10-23T19:43:15.270Z,20.80
2022-10-23T19:45:46.696Z,20.60
2022-10-23T19:48:17.944Z,20.40
2022-10-23T19:50:49.226Z,20.30
2022-10-23T19:53:20.394Z,20.10
2022-10-23T19:55:52.754Z,20.00
2022-10-23T19:58:24.035Z,19.80
2022-10-23T20:00:55.009Z,20.10
2022-10-23T20:03:25.814Z,20.10
2022-10-23T20:05:56.497Z,20.10
2022-10-23T20:08:30.100Z,19.80
2022-10-23T20:10:59.959Z,19.90
2022-10-23T20:13:30.996Z,19.90
2022-10-23T20:16:02.034Z,20.10
2022-10-23T20:18:32.918Z,19.90
2022-10-23T20:21:05.050Z,19.90
2022-10-23T20:23:35.992Z,19.60
2022-10-23T20:26:08.963Z,19.70
2022-10-23T20:28:40.310Z,19.50
2022-10-23T20:31:12.568Z,19.30
2022-10-23T20:33:43.970Z,19.20
2022-10-23T20:36:29.712Z,19.40
2022-10-23T20:39:03.071Z,19.50
2022-10-23T20:41:35.628Z,19.30
2022-10-23T20:44:08.072Z,19.40
2022-10-23T20:46:39.025Z,19.20
2022-10-23T20:49:09.688Z,19.30
2022-10-23T20:51:40.381Z,19.20
2022-10-23T20:54:11.295Z,19.10
2022-10-23T20:56:42.302Z,18.90
2022-10-23T20:59:15.931Z,18.70
2022-10-23T21:01:49.652Z,18.60
2022-10-23T21:04:22.178Z,18.70
2022-10-23T21:07:11.109Z,18.70
2022-10-23T21:09:28.661Z,18.40
2022-10-23T21:11:59.236Z,18.20
2022-10-23T21:14:30.629Z,18.30
2022-10-23T21:17:01.148Z,18.40
2022-10-23T21:19:31.896Z,18.60
2022-10-23T21:22:02.429Z,18.60
2022-10-23T21:24:33.023Z,18.70
2022-10-23T21:27:03.626Z,18.70
2022-10-23T21:29:34.151Z,18.70
2022-10-23T21:32:04.804Z,18.70
2022-10-23T21:34:35.440Z,18.60
2022-10-23T21:37:14.538Z,18.50
2022-10-23T21:39:38.195Z,18.40
2022-10-23T21:42:08.917Z,18.30
2022-10-23T21:44:39.896Z,18.30
2022-10-23T21:47:10.916Z,18.30
2022-10-23T21:49:41.468Z,18.20
2022-10-23T21:52:13.988Z,18.20
2022-10-23T21:54:44.272Z,18.10
2022-10-23T21:57:16.330Z,18.10
2022-10-23T21:59:47.389Z,18.20
2022-10-23T22:02:18.935Z,18.20
2022-10-23T22:04:49.646Z,18.20
2022-10-23T22:07:20.586Z,18.10
2022-10-23T22:09:51.164Z,18.10
2022-10-23T22:12:21.707Z,18.20
2022-10-23T22:14:52.292Z,18.10
2022-10-23T22:17:22.829Z,18.00
2022-10-23T22:19:53.396Z,18.00
2022-10-23T22:22:24.087Z,18.10
2022-10-23T22:24:54.770Z,18.20
2022-10-23T22:27:25.394Z,18.10
2022-10-23T22:29:57.275Z,18.10
2022-10-23T22:32:27.952Z,18.10
2022-10-23T22:34:58.570Z,18.00
2022-10-23T22:37:29.156Z,18.00
2022-10-23T22:40:35.571Z,18.00
2022-10-23T22:43:06.819Z,18.00
2022-10-23T22:45:37.366Z,18.20
2022-10-23T22:48:09.171Z,18.20
2022-10-23T22:50:39.763Z,18.10
2022-10-23T22:53:10.577Z,17.90
2022-10-23T22:55:44.635Z,17.90
2022-10-23T22:58:15.128Z,18.00
2022-10-23T23:00:45.698Z,17.90
2022-10-23T23:03:18.937Z,17.90
2022-10-23T23:05:50.271Z,17.90
2022-10-23T23:08:20.912Z,17.90
2022-10-23T23:10:55.516Z,17.90
2022-10-23T23:13:26.737Z,17.80
2022-10-23T23:15:57.263Z,17.80
2022-10-23T23:18:27.876Z,17.80
2022-10-23T23:21:02.673Z,17.80
2022-10-23T23:23:33.602Z,17.70
2022-10-23T23:28:45.327Z,17.70
2022-10-23T23:31:19.015Z,17.80
2022-10-23T23:33:50.267Z,17.80
2022-10-23T23:36:22.882Z,17.80
2022-10-23T23:38:55.116Z,17.80
2022-10-23T23:41:26.583Z,18.00
2022-10-23T23:43:59.145Z,17.90
2022-10-23T23:46:30.040Z,17.90
2022-10-23T23:49:00.574Z,17.80
2022-10-23T23:54:10.029Z,17.80
2022-10-23T23:59:19.731Z,17.90
